sensor_id;sensor_type;location;lat;lon;timestamp;P1;durP1;ratioP1;P2;durP2;ratioP2
65053;SDS011;51639;47.828;35.038;2023-03-13T00:03:00;10.90;;;4.60;;
65053;SDS011;51639;47.828;35.038;2023-03-13T00:18:02;5.70;;;3.93;;
65053;SDS011;51639;47.828;35.038;2023-03-13T00:33:04;8.30;;;4.13;;
65053;SDS011;51639;47.828;35.038;2023-03-13T00:48:06;8.37;;;3.90;;
65053;SDS011;51639;47.828;35.038;2023-03-13T01:03:08;6.67;;;3.73;;
65053;SDS011;51639;47.828;35.038;2023-03-13T01:18:10;5.57;;;3.00;;
65053;SDS011;51639;47.828;35.038;2023-03-13T01:33:16;7.27;;;3.83;;
65053;SDS011;51639;47.828;35.038;2023-03-13T01:48:18;4.60;;;3.10;;
65053;SDS011;51639;47.828;35.038;2023-03-13T02:03:22;13.33;;;3.50;;
65053;SDS011;51639;47.828;35.038;2023-03-13T02:18:25;4.73;;;3.47;;
65053;SDS011;51639;47.828;35.038;2023-03-13T02:33:29;5.77;;;3.23;;
65053;SDS011;51639;47.828;35.038;2023-03-13T02:48:40;6.77;;;3.53;;
65053;SDS011;51639;47.828;35.038;2023-03-13T03:03:46;5.23;;;3.60;;
65053;SDS011;51639;47.828;35.038;2023-03-13T03:18:49;7.93;;;4.27;;
65053;SDS011;51639;47.828;35.038;2023-03-13T03:33:51;6.90;;;3.83;;
65053;SDS011;51639;47.828;35.038;2023-03-13T03:48:53;10.80;;;4.50;;
65053;SDS011;51639;47.828;35.038;2023-03-13T04:03:55;6.60;;;3.60;;
65053;SDS011;51639;47.828;35.038;2023-03-13T04:18:57;7.03;;;3.97;;
65053;SDS011;51639;47.828;35.038;2023-03-13T04:33:59;7.13;;;3.67;;
65053;SDS011;51639;47.828;35.038;2023-03-13T04:49:01;6.83;;;4.07;;
65053;SDS011;51639;47.828;35.038;2023-03-13T05:04:03;5.33;;;3.90;;
65053;SDS011;51639;47.828;35.038;2023-03-13T05:19:06;5.53;;;4.10;;
65053;SDS011;51639;47.828;35.038;2023-03-13T05:34:08;5.80;;;3.47;;
65053;SDS011;51639;47.828;35.038;2023-03-13T05:49:10;5.40;;;3.10;;
65053;SDS011;51639;47.828;35.038;2023-03-13T06:04:11;5.10;;;3.80;;
65053;SDS011;51639;47.828;35.038;2023-03-13T06:19:13;6.93;;;4.13;;
65053;SDS011;51639;47.828;35.038;2023-03-13T06:34:16;5.07;;;3.37;;
65053;SDS011;51639;47.828;35.038;2023-03-13T06:49:18;5.83;;;3.70;;
65053;SDS011;51639;47.828;35.038;2023-03-13T07:04:20;4.30;;;3.40;;
65053;SDS011;51639;47.828;35.038;2023-03-13T07:19:22;10.30;;;4.63;;
65053;SDS011;51639;47.828;35.038;2023-03-13T07:34:24;5.63;;;2.93;;
65053;SDS011;51639;47.828;35.038;2023-03-13T07:49:26;4.97;;;3.07;;
65053;SDS011;51639;47.828;35.038;2023-03-13T08:04:28;6.03;;;3.33;;
65053;SDS011;51639;47.828;35.038;2023-03-13T08:19:30;3.33;;;2.40;;
65053;SDS011;51639;47.828;35.038;2023-03-13T08:34:32;4.20;;;2.80;;
65053;SDS011;51639;47.828;35.038;2023-03-13T08:49:35;3.90;;;2.40;;
65053;SDS011;51639;47.828;35.038;2023-03-13T09:04:37;2.70;;;2.00;;
65053;SDS011;51639;47.828;35.038;2023-03-13T09:19:39;3.70;;;1.47;;
65053;SDS011;51639;47.828;35.038;2023-03-13T09:34:59;2.60;;;1.50;;
65053;SDS011;51639;47.828;35.038;2023-03-13T09:50:02;2.80;;;1.43;;
65053;SDS011;51639;47.828;35.038;2023-03-13T10:05:19;4.17;;;1.60;;
65053;SDS011;51639;47.828;35.038;2023-03-13T10:20:27;3.93;;;1.60;;
65053;SDS011;51639;47.828;35.038;2023-03-13T10:35:40;7.57;;;2.17;;
65053;SDS011;51639;47.828;35.038;2023-03-13T10:50:44;2.80;;;1.70;;
65053;SDS011;51639;47.828;35.038;2023-03-13T11:05:56;6.97;;;4.37;;
65053;SDS011;51639;47.828;35.038;2023-03-13T11:20:59;1.50;;;1.10;;
65053;SDS011;51639;47.828;35.038;2023-03-13T11:36:22;1.97;;;1.40;;
65053;SDS011;51639;47.828;35.038;2023-03-13T12:22:14;2.07;;;1.10;;
65053;SDS011;51639;47.828;35.038;2023-03-13T13:23:55;5.07;;;1.57;;
65053;SDS011;51639;47.828;35.038;2023-03-13T13:39:50;2.40;;;1.70;;
65053;SDS011;51639;47.828;35.038;2023-03-13T13:54:54;2.53;;;1.53;;
65053;SDS011;51639;47.828;35.038;2023-03-13T14:10:15;2.73;;;2.10;;
65053;SDS011;51639;47.828;35.038;2023-03-13T14:25:26;2.57;;;1.57;;
65053;SDS011;51639;47.828;35.038;2023-03-13T14:40:29;3.07;;;2.00;;
65053;SDS011;51639;47.828;35.038;2023-03-13T14:55:34;1.90;;;1.47;;
65053;SDS011;51639;47.828;35.038;2023-03-13T15:10:36;8.57;;;3.37;;
65053;SDS011;51639;47.828;35.038;2023-03-13T15:25:38;3.93;;;1.60;;
65053;SDS011;51639;47.828;35.038;2023-03-13T15:40:41;2.67;;;1.70;;
65053;SDS011;51639;47.828;35.038;2023-03-13T15:55:45;4.03;;;1.63;;
65053;SDS011;51639;47.828;35.038;2023-03-13T16:10:48;2.67;;;1.80;;
65053;SDS011;51639;47.828;35.038;2023-03-13T16:25:50;5.93;;;2.50;;
65053;SDS011;51639;47.828;35.038;2023-03-13T16:40:53;3.93;;;2.53;;
65053;SDS011;51639;47.828;35.038;2023-03-13T16:55:55;15.30;;;5.80;;
65053;SDS011;51639;47.828;35.038;2023-03-13T17:10:59;9.57;;;2.60;;
65053;SDS011;51639;47.828;35.038;2023-03-13T17:26:01;9.53;;;3.13;;
65053;SDS011;51639;47.828;35.038;2023-03-13T17:41:04;12.33;;;3.20;;
65053;SDS011;51639;47.828;35.038;2023-03-13T17:56:13;6.40;;;3.57;;
65053;SDS011;51639;47.828;35.038;2023-03-13T18:11:19;4.77;;;2.93;;
65053;SDS011;51639;47.828;35.038;2023-03-13T18:26:24;4.20;;;2.73;;
65053;SDS011;51639;47.828;35.038;2023-03-13T18:41:31;4.07;;;2.60;;
65053;SDS011;51639;47.828;35.038;2023-03-13T18:56:34;3.73;;;1.83;;
65053;SDS011;51639;47.828;35.038;2023-03-13T19:11:37;6.27;;;2.87;;
65053;SDS011;51639;47.828;35.038;2023-03-13T19:26:40;9.90;;;3.07;;
65053;SDS011;51639;47.828;35.038;2023-03-13T19:41:47;5.07;;;2.30;;
65053;SDS011;51639;47.828;35.038;2023-03-13T19:56:49;4.07;;;2.27;;
65053;SDS011;51639;47.828;35.038;2023-03-13T20:11:51;6.93;;;2.03;;
65053;SDS011;51639;47.828;35.038;2023-03-13T20:26:53;3.43;;;2.10;;
65053;SDS011;51639;47.828;35.038;2023-03-13T20:41:56;2.97;;;2.00;;
65053;SDS011;51639;47.828;35.038;2023-03-13T20:57:03;4.73;;;2.50;;
65053;SDS011;51639;47.828;35.038;2023-03-13T21:12:05;8.67;;;4.03;;
65053;SDS011;51639;47.828;35.038;2023-03-13T21:27:10;10.50;;;5.37;;
65053;SDS011;51639;47.828;35.038;2023-03-13T21:42:12;17.53;;;6.30;;
65053;SDS011;51639;47.828;35.038;2023-03-13T21:57:14;15.57;;;6.80;;
65053;SDS011;51639;47.828;35.038;2023-03-13T22:12:16;15.97;;;7.93;;
65053;SDS011;51639;47.828;35.038;2023-03-13T22:27:18;15.63;;;6.47;;
65053;SDS011;51639;47.828;35.038;2023-03-13T22:42:21;10.30;;;6.10;;
65053;SDS011;51639;47.828;35.038;2023-03-13T22:57:24;8.03;;;3.47;;
65053;SDS011;51639;47.828;35.038;2023-03-13T23:12:26;8.50;;;3.87;;
65053;SDS011;51639;47.828;35.038;2023-03-13T23:27:31;7.83;;;3.70;;
65053;SDS011;51639;47.828;35.038;2023-03-13T23:42:34;9.77;;;3.90;;
65053;SDS011;51639;47.828;35.038;2023-03-13T23:57:35;8.70;;;3.70;;
